createdAt,value
2018-10-12T00:00:53.146Z,998.54
2018-10-12T00:01:53.139Z,998.51
2018-10-12T00:02:53.136Z,998.51
2018-10-12T00:03:53.129Z,998.41
2018-10-12T00:04:53.129Z,998.34
2018-10-12T00:05:53.117Z,998.38
2018-10-12T00:06:53.111Z,998.33
2018-10-12T00:07:53.109Z,998.35
2018-10-12T00:08:53.102Z,998.35
2018-10-12T00:09:53.098Z,998.35
2018-10-12T00:10:53.090Z,998.39
2018-10-12T00:11:53.085Z,998.41
2018-10-12T00:12:53.078Z,998.44
2018-10-12T00:13:53.072Z,998.40
2018-10-12T00:14:53.068Z,998.42
2018-10-12T00:15:53.063Z,998.44
2018-10-12T00:16:53.107Z,998.45
2018-10-12T00:17:53.051Z,998.52
2018-10-12T00:18:53.044Z,998.63
2018-10-12T00:19:53.040Z,998.68
2018-10-12T00:20:53.038Z,998.64
2018-10-12T00:21:53.029Z,998.60
2018-10-12T00:22:53.022Z,998.63
2018-10-12T00:23:53.018Z,998.68
2018-10-12T00:24:53.012Z,998.66
2018-10-12T00:25:53.007Z,998.68
2018-10-12T00:26:53.001Z,998.71
2018-10-12T00:27:53.246Z,998.69
2018-10-12T00:28:52.990Z,998.74
2018-10-12T00:29:52.984Z,998.67
2018-10-12T00:30:52.979Z,998.61
2018-10-12T00:31:52.973Z,998.63
2018-10-12T00:32:52.969Z,998.57
2018-10-12T00:33:52.960Z,998.56
2018-10-12T00:34:52.956Z,998.53
2018-10-12T00:35:52.951Z,998.55
2018-10-12T00:36:52.945Z,998.56
2018-10-12T00:37:52.938Z,998.58
2018-10-12T00:38:52.935Z,998.58
2018-10-12T00:39:52.928Z,998.58
2018-10-12T00:40:52.922Z,998.60
2018-10-12T00:41:52.917Z,998.59
2018-10-12T00:42:52.911Z,998.56
2018-10-12T00:43:52.906Z,998.58
2018-10-12T00:44:52.903Z,998.61
2018-10-12T00:45:52.894Z,998.61
2018-10-12T00:46:52.889Z,998.56
2018-10-12T00:47:52.883Z,998.50
2018-10-12T00:48:52.878Z,998.46
2018-10-12T00:49:52.925Z,998.40
2018-10-12T00:50:52.866Z,998.40
2018-10-12T00:51:52.861Z,998.44
2018-10-12T00:52:52.857Z,998.50
2018-10-12T00:53:52.848Z,998.47
2018-10-12T00:54:52.843Z,998.53
2018-10-12T00:55:52.838Z,998.56
2018-10-12T00:56:52.834Z,998.59
2018-10-12T00:57:52.826Z,998.63
2018-10-12T00:58:52.821Z,998.67
2018-10-12T00:59:52.815Z,998.74
2018-10-12T01:00:52.813Z,998.74
2018-10-12T01:01:52.803Z,998.82
2018-10-12T01:02:52.798Z,998.76
2018-10-12T01:03:52.795Z,998.85
2018-10-12T01:04:52.788Z,998.94
2018-10-12T01:05:52.781Z,998.94
2018-10-12T01:06:52.776Z,998.95
2018-10-12T01:07:52.770Z,998.98
2018-10-12T01:08:52.765Z,998.95
2018-10-12T01:09:52.758Z,999.01
2018-10-12T01:10:52.754Z,998.97
2018-10-12T01:11:52.750Z,999.03
2018-10-12T01:12:52.742Z,999.06
2018-10-12T01:13:52.737Z,999.08
2018-10-12T01:14:52.729Z,999.06
2018-10-12T01:15:52.723Z,999.11
2018-10-12T01:16:52.718Z,999.17
2018-10-12T01:17:52.711Z,999.19
2018-10-12T01:18:52.705Z,999.14
2018-10-12T01:19:52.699Z,999.20
2018-10-12T01:20:52.698Z,999.20
2018-10-12T01:21:52.688Z,999.23
2018-10-12T01:22:52.682Z,999.26
2018-10-12T01:23:52.676Z,999.24
2018-10-12T01:24:52.670Z,999.29
2018-10-12T01:25:52.664Z,999.34
2018-10-12T01:26:52.658Z,999.34
2018-10-12T01:27:52.654Z,999.29
2018-10-12T01:28:52.646Z,999.37
2018-10-12T01:29:52.640Z,999.32
2018-10-12T01:30:52.634Z,999.33
2018-10-12T01:31:52.628Z,999.32
2018-10-12T01:32:52.622Z,999.41
2018-10-12T01:33:52.616Z,999.36
2018-10-12T01:34:52.610Z,999.38
2018-10-12T01:35:52.605Z,999.42
2018-10-12T01:36:52.598Z,999.47
2018-10-12T01:37:52.591Z,999.39
2018-10-12T01:38:52.585Z,999.37
2018-10-12T01:39:52.580Z,999.32
2018-10-12T01:40:52.574Z,999.37
2018-10-12T01:41:52.570Z,999.34
2018-10-12T01:42:52.563Z,999.30
2018-10-12T01:43:52.556Z,999.33
2018-10-12T01:44:52.550Z,999.28
2018-10-12T01:45:52.543Z,999.28
2018-10-12T01:46:52.537Z,999.26
2018-10-12T01:47:52.531Z,999.24
2018-10-12T01:48:52.525Z,999.26
2018-10-12T01:49:52.520Z,999.27
2018-10-12T01:50:52.513Z,999.27
2018-10-12T01:51:52.507Z,999.25
2018-10-12T01:52:52.501Z,999.26
2018-10-12T01:53:52.495Z,999.27
2018-10-12T01:54:52.488Z,999.28
2018-10-12T01:55:52.483Z,999.28
2018-10-12T01:56:52.477Z,999.31
2018-10-12T01:57:52.473Z,999.32
2018-10-12T01:58:52.465Z,999.34
2018-10-12T01:59:52.459Z,999.36
2018-10-12T02:00:52.453Z,999.39
2018-10-12T02:01:52.447Z,999.42
2018-10-12T02:02:52.449Z,999.42
2018-10-12T02:03:52.460Z,999.42
2018-10-12T02:04:52.432Z,999.38
2018-10-12T02:05:52.423Z,999.36
2018-10-12T02:06:52.417Z,999.39
2018-10-12T02:07:52.414Z,999.39
2018-10-12T02:08:52.405Z,999.37
2018-10-12T02:09:52.426Z,999.41
2018-10-12T02:10:52.393Z,999.41
2018-10-12T02:11:52.386Z,999.43
2018-10-12T02:12:52.381Z,999.45
2018-10-12T02:13:52.375Z,999.45
2018-10-12T02:14:52.373Z,999.49
2018-10-12T02:15:52.363Z,999.54
2018-10-12T02:16:52.358Z,999.52
2018-10-12T02:17:52.350Z,999.55
2018-10-12T02:18:52.345Z,999.57
2018-10-12T02:19:52.343Z,999.57
2018-10-12T02:20:52.334Z,999.57
2018-10-12T02:21:52.326Z,999.57
2018-10-12T02:22:52.321Z,999.59
2018-10-12T02:23:52.316Z,999.61
2018-10-12T02:24:52.311Z,999.67
2018-10-12T02:25:52.304Z,999.68
2018-10-12T02:26:52.298Z,999.63
2018-10-12T02:27:52.294Z,999.59
2018-10-12T02:28:52.288Z,999.61
2018-10-12T02:29:52.281Z,999.68
2018-10-12T02:30:52.276Z,999.66
2018-10-12T02:31:52.270Z,999.69
2018-10-12T02:32:52.264Z,999.67
2018-10-12T02:33:52.256Z,999.66
2018-10-12T02:34:52.252Z,999.66
2018-10-12T02:35:52.252Z,999.69
2018-10-12T02:36:52.241Z,999.65
2018-10-12T02:37:52.234Z,999.71
2018-10-12T02:38:52.330Z,999.71
2018-10-12T02:39:52.224Z,999.69
2018-10-12T02:40:52.219Z,999.69
2018-10-12T02:41:52.212Z,999.69
2018-10-12T02:42:52.207Z,999.69
2018-10-12T02:43:52.201Z,999.72
2018-10-12T02:44:52.196Z,999.73
2018-10-12T02:45:52.189Z,999.72
2018-10-12T02:46:52.184Z,999.73
2018-10-12T02:47:52.180Z,999.75
2018-10-12T02:48:52.172Z,999.75
2018-10-12T02:49:52.165Z,999.76
2018-10-12T02:50:52.160Z,999.76
2018-10-12T02:51:52.154Z,999.77
2018-10-12T02:52:52.152Z,999.81
2018-10-12T02:53:52.140Z,999.75
2018-10-12T02:54:52.137Z,999.80
2018-10-12T02:55:52.129Z,999.80
2018-10-12T02:56:52.124Z,999.89
2018-10-12T02:57:52.119Z,999.86
2018-10-12T02:58:52.118Z,999.93
2018-10-12T02:59:52.108Z,999.97
2018-10-12T03:00:52.101Z,999.98
2018-10-12T03:01:52.093Z,1000.02
2018-10-12T03:02:52.088Z,1000.01
2018-10-12T03:03:52.082Z,1000.02
2018-10-12T03:04:52.076Z,1000.01
2018-10-12T03:05:52.069Z,1000.04
2018-10-12T03:06:52.063Z,1000.03
2018-10-12T03:07:52.059Z,1000.02
2018-10-12T03:08:52.052Z,1000.07
2018-10-12T03:09:52.044Z,1000.05
2018-10-12T03:10:52.039Z,1000.03
2018-10-12T03:11:52.037Z,1000.04
2018-10-12T03:12:52.027Z,1000.02
2018-10-12T03:13:52.021Z,1000.10
2018-10-12T03:14:52.014Z,1000.10
2018-10-12T03:15:52.007Z,1000.12
2018-10-12T03:16:52.003Z,1000.15
2018-10-12T03:17:51.997Z,1000.13
2018-10-12T03:18:52.001Z,1000.20
2018-10-12T03:19:51.984Z,1000.17
2018-10-12T03:20:51.979Z,1000.17
2018-10-12T03:21:51.971Z,1000.22
2018-10-12T03:22:51.965Z,1000.24
2018-10-12T03:23:51.959Z,1000.23
2018-10-12T03:24:51.953Z,1000.27
2018-10-12T03:25:51.947Z,1000.29
2018-10-12T03:26:51.940Z,1000.25
2018-10-12T03:27:51.935Z,1000.23
2018-10-12T03:28:51.929Z,1000.23
2018-10-12T03:29:51.924Z,1000.20
2018-10-12T03:30:51.916Z,1000.24
2018-10-12T03:31:51.925Z,1000.23
2018-10-12T03:32:51.905Z,1000.19
2018-10-12T03:33:51.899Z,1000.17
2018-10-12T03:34:51.894Z,1000.18
2018-10-12T03:35:51.892Z,1000.19
2018-10-12T03:36:51.880Z,1000.13
2018-10-12T03:37:51.874Z,1000.11
2018-10-12T03:38:51.867Z,1000.11
2018-10-12T03:39:51.861Z,1000.11
2018-10-12T03:40:51.855Z,1000.07
2018-10-12T03:41:51.849Z,1000.10
2018-10-12T03:42:51.844Z,1000.15
2018-10-12T03:43:51.840Z,1000.22
2018-10-12T03:44:51.831Z,1000.24
2018-10-12T03:45:51.824Z,1000.29
2018-10-12T03:46:51.818Z,1000.37
2018-10-12T03:47:51.812Z,1000.44
2018-10-12T03:48:51.810Z,1000.50
2018-10-12T03:49:51.799Z,1000.57
2018-10-12T03:50:51.792Z,1000.63
2018-10-12T03:51:51.798Z,1000.63
2018-10-12T03:52:51.780Z,1000.66
2018-10-12T03:53:51.774Z,1000.76
2018-10-12T03:54:51.768Z,1000.74
2018-10-12T03:55:51.766Z,1000.69
2018-10-12T03:56:51.755Z,1000.69
2018-10-12T03:57:51.751Z,1000.68
2018-10-12T03:58:51.741Z,1000.65
2018-10-12T03:59:51.735Z,1000.63
2018-10-12T04:00:51.980Z,1000.62
2018-10-12T04:01:51.721Z,1000.59
2018-10-12T04:02:51.850Z,1000.63
2018-10-12T04:03:51.710Z,1000.68
2018-10-12T04:04:51.702Z,1000.71
2018-10-12T04:05:51.901Z,1000.77
2018-10-12T04:06:51.691Z,1000.74
2018-10-12T04:07:51.685Z,1000.76
2018-10-12T04:08:51.677Z,1000.76
2018-10-12T04:09:51.673Z,1000.69
2018-10-12T04:10:51.668Z,1000.75
2018-10-12T04:11:51.662Z,1000.82
2018-10-12T04:12:51.653Z,1000.81
2018-10-12T04:13:51.647Z,1000.86
2018-10-12T04:14:51.640Z,1000.83
2018-10-12T04:15:51.635Z,1000.79
2018-10-12T04:16:51.628Z,1000.80
2018-10-12T04:17:51.621Z,1000.85
2018-10-12T04:18:51.618Z,1000.90
2018-10-12T04:19:51.610Z,1000.90
2018-10-12T04:20:51.609Z,1000.93
2018-10-12T04:21:51.595Z,1000.95
2018-10-12T04:22:51.588Z,1000.96
2018-10-12T04:23:51.585Z,1000.97
2018-10-12T04:24:51.576Z,1000.94
2018-10-12T04:25:51.569Z,1000.91
2018-10-12T04:26:51.597Z,1000.94
2018-10-12T04:27:51.557Z,1000.94
2018-10-12T04:28:51.551Z,1000.92
2018-10-12T04:29:51.544Z,1000.91
2018-10-12T04:30:51.536Z,1000.95
2018-10-12T04:31:51.531Z,1001.00
2018-10-12T04:32:51.526Z,1000.97
2018-10-12T04:33:51.518Z,1001.01
2018-10-12T04:34:51.512Z,1001.04
2018-10-12T04:35:51.507Z,1001.03
2018-10-12T04:36:51.500Z,1001.00
2018-10-12T04:37:51.491Z,1001.06
2018-10-12T04:38:51.486Z,1001.04
2018-10-12T04:39:51.480Z,1001.03
2018-10-12T04:40:51.473Z,1001.09
2018-10-12T04:41:51.467Z,1001.11
2018-10-12T04:42:51.459Z,1001.12
2018-10-12T04:43:51.453Z,1001.10
2018-10-12T04:44:51.447Z,1001.13
2018-10-12T04:45:51.443Z,1001.10
2018-10-12T04:46:51.434Z,1001.06
2018-10-12T04:47:51.427Z,1001.09
2018-10-12T04:48:51.422Z,1001.10
2018-10-12T04:49:51.415Z,1001.07
2018-10-12T04:50:51.409Z,1001.05
2018-10-12T04:51:51.401Z,1001.07
2018-10-12T04:52:51.394Z,1001.09
2018-10-12T04:53:51.491Z,1001.07
2018-10-12T04:54:51.381Z,1001.14
2018-10-12T04:55:51.374Z,1001.12
2018-10-12T04:56:51.369Z,1001.17
2018-10-12T04:57:51.364Z,1001.15
2018-10-12T04:58:51.355Z,1001.17
2018-10-12T04:59:51.350Z,1001.16
2018-10-12T05:00:51.369Z,1001.20
2018-10-12T05:01:51.335Z,1001.17
2018-10-12T05:02:51.331Z,1001.19
2018-10-12T05:03:51.324Z,1001.20
2018-10-12T05:04:51.316Z,1001.21
2018-10-12T05:05:51.311Z,1001.20
2018-10-12T05:06:51.302Z,1001.20
2018-10-12T05:07:51.428Z,1001.22
2018-10-12T05:08:51.290Z,1001.19
2018-10-12T05:09:51.283Z,1001.22
2018-10-12T05:10:51.277Z,1001.23
2018-10-12T05:11:51.273Z,1001.21
2018-10-12T05:12:51.264Z,1001.23
2018-10-12T05:13:51.257Z,1001.21
2018-10-12T05:14:51.250Z,1001.25
2018-10-12T05:15:51.244Z,1001.28
2018-10-12T05:16:51.239Z,1001.29
2018-10-12T05:17:51.230Z,1001.31
2018-10-12T05:18:51.229Z,1001.31
2018-10-12T05:19:51.221Z,1001.29
2018-10-12T05:20:51.212Z,1001.32
2018-10-12T05:21:51.265Z,1001.32
2018-10-12T05:22:51.198Z,1001.34
2018-10-12T05:23:51.193Z,1001.32
2018-10-12T05:24:51.187Z,1001.27
2018-10-12T05:25:51.179Z,1001.28
2018-10-12T05:26:51.175Z,1001.24
2018-10-12T05:27:51.166Z,1001.28
2018-10-12T05:28:51.160Z,1001.26
2018-10-12T05:29:51.152Z,1001.28
2018-10-12T05:30:51.145Z,1001.26
2018-10-12T05:31:51.144Z,1001.28
2018-10-12T05:32:51.136Z,1001.30
2018-10-12T05:33:51.125Z,1001.31
2018-10-12T05:34:51.120Z,1001.30
2018-10-12T05:35:51.164Z,1001.27
2018-10-12T05:36:51.108Z,1001.30
2018-10-12T05:37:51.100Z,1001.35
2018-10-12T05:38:51.092Z,1001.31
2018-10-12T05:39:51.088Z,1001.31
2018-10-12T05:40:51.081Z,1001.32
2018-10-12T05:41:51.081Z,1001.32
2018-10-12T05:42:51.151Z,1001.39
2018-10-12T05:43:51.103Z,1001.37
2018-10-12T05:44:51.054Z,1001.37
2018-10-12T05:45:51.049Z,1001.39
2018-10-12T05:46:51.042Z,1001.40
2018-10-12T05:47:51.051Z,1001.45
2018-10-12T05:48:51.100Z,1001.45
2018-10-12T05:49:51.022Z,1001.46
2018-10-12T05:50:51.018Z,1001.50
2018-10-12T05:51:51.009Z,1001.56
2018-10-12T05:52:51.004Z,1001.61
2018-10-12T05:53:50.996Z,1001.60
2018-10-12T05:54:50.990Z,1001.63
2018-10-12T05:55:51.115Z,1001.67
2018-10-12T05:56:50.976Z,1001.64
2018-10-12T05:57:50.969Z,1001.64
2018-10-12T05:58:50.967Z,1001.70
2018-10-12T05:59:50.959Z,1001.70
2018-10-12T06:00:50.953Z,1001.70
2018-10-12T06:01:50.947Z,1001.72
2018-10-12T06:02:50.949Z,1001.69
2018-10-12T06:03:50.939Z,1001.75
2018-10-12T06:04:50.926Z,1001.78
2018-10-12T06:05:50.919Z,1001.77
2018-10-12T06:06:50.913Z,1001.86
2018-10-12T06:07:50.907Z,1001.88
2018-10-12T06:08:50.903Z,1001.88
2018-10-12T06:09:51.020Z,1001.91
2018-10-12T06:10:50.887Z,1001.91
2018-10-12T06:11:50.882Z,1001.89
2018-10-12T06:12:50.877Z,1001.88
2018-10-12T06:13:50.873Z,1001.88
2018-10-12T06:14:50.866Z,1001.96
2018-10-12T06:15:50.863Z,1001.94
2018-10-12T06:16:50.853Z,1001.95
2018-10-12T06:17:50.842Z,1002.01
2018-10-12T06:18:50.838Z,1002.06
2018-10-12T06:19:50.832Z,1002.08
2018-10-12T06:20:50.825Z,1002.09
2018-10-12T06:21:50.822Z,1002.12
2018-10-12T06:22:50.813Z,1002.15
2018-10-12T06:23:50.803Z,1002.20
2018-10-12T06:24:50.803Z,1002.22
2018-10-12T06:25:50.791Z,1002.26
2018-10-12T06:26:50.880Z,1002.25
2018-10-12T06:27:50.780Z,1002.28
2018-10-12T06:28:50.774Z,1002.25
2018-10-12T06:29:50.768Z,1002.24
2018-10-12T06:30:50.761Z,1002.29
2018-10-12T06:31:50.755Z,1002.32
2018-10-12T06:32:50.811Z,1002.32
2018-10-12T06:33:50.743Z,1002.37
2018-10-12T06:34:50.739Z,1002.39
2018-10-12T06:35:50.730Z,1002.38
2018-10-12T06:36:50.733Z,1002.40
2018-10-12T06:37:50.766Z,1002.38
2018-10-12T06:38:50.712Z,1002.42
2018-10-12T06:39:50.706Z,1002.44
2018-10-12T06:40:50.748Z,1002.46
2018-10-12T06:41:50.976Z,1002.47
2018-10-12T06:42:50.691Z,1002.51
2018-10-12T06:43:50.682Z,1002.48
2018-10-12T06:45:50.669Z,1002.47
2018-10-12T06:46:50.667Z,1002.52
2018-10-12T06:47:50.659Z,1002.56
2018-10-12T06:48:50.856Z,1002.63
2018-10-12T06:49:50.649Z,1002.59
2018-10-12T06:50:50.640Z,1002.63
2018-10-12T06:51:50.640Z,1002.61
2018-10-12T06:52:50.632Z,1002.66
2018-10-12T06:53:50.681Z,1002.63
2018-10-12T06:54:50.618Z,1002.66
2018-10-12T06:55:50.611Z,1002.69
2018-10-12T06:56:50.607Z,1002.69
2018-10-12T06:57:50.601Z,1002.76
2018-10-12T06:58:50.598Z,1002.67
2018-10-12T06:59:50.606Z,1002.71
2018-10-12T07:00:50.584Z,1002.73
2018-10-12T07:01:50.579Z,1002.74
2018-10-12T07:02:50.577Z,1002.71
2018-10-12T07:03:50.572Z,1002.71
2018-10-12T07:04:50.563Z,1002.73
2018-10-12T07:05:50.557Z,1002.79
2018-10-12T07:06:50.552Z,1002.83
2018-10-12T07:07:50.547Z,1002.83
2018-10-12T07:08:50.547Z,1002.85
2018-10-12T07:09:50.536Z,1002.80
2018-10-12T07:10:50.531Z,1002.85
2018-10-12T07:11:50.526Z,1002.87
2018-10-12T07:12:50.521Z,1002.89
2018-10-12T07:13:50.591Z,1002.86
2018-10-12T07:14:50.712Z,1002.90
2018-10-12T07:15:50.509Z,1002.90
2018-10-12T07:16:50.503Z,1002.91
2018-10-12T07:17:50.496Z,1002.93
2018-10-12T07:18:50.492Z,1002.93
2018-10-12T07:19:50.487Z,1002.96
2018-10-12T07:20:50.480Z,1002.94
2018-10-12T07:21:50.475Z,1002.93
2018-10-12T07:22:50.470Z,1002.91
2018-10-12T07:23:50.465Z,1002.90
2018-10-12T07:24:50.460Z,1002.90
2018-10-12T07:25:50.465Z,1002.91
2018-10-12T07:26:50.455Z,1002.93
2018-10-12T07:27:50.445Z,1002.97
2018-10-12T07:28:50.440Z,1002.94
2018-10-12T07:29:50.434Z,1002.97
2018-10-12T07:30:50.432Z,1003.00
2018-10-12T07:31:50.676Z,1003.02
2018-10-12T07:32:50.421Z,1003.01
2018-10-12T07:33:50.418Z,1003.01
2018-10-12T07:34:50.409Z,1003.05
2018-10-12T07:35:50.409Z,1003.04
2018-10-12T07:36:50.403Z,1003.04
2018-10-12T07:37:50.396Z,1003.04
2018-10-12T07:38:50.392Z,1003.03
2018-10-12T07:39:50.389Z,1003.06
2018-10-12T07:40:50.388Z,1003.04
2018-10-12T07:41:50.379Z,1003.09
2018-10-12T07:42:50.374Z,1003.12
2018-10-12T07:43:50.369Z,1003.15
2018-10-12T07:44:50.364Z,1003.14
2018-10-12T07:45:50.359Z,1003.13
2018-10-12T07:46:50.359Z,1003.17
2018-10-12T07:47:50.351Z,1003.18
2018-10-12T07:48:50.348Z,1003.17
2018-10-12T07:49:50.343Z,1003.18
2018-10-12T07:50:50.337Z,1003.19
2018-10-12T07:51:50.532Z,1003.24
2018-10-12T07:52:50.331Z,1003.25
2018-10-12T07:53:50.321Z,1003.31
2018-10-12T07:54:50.317Z,1003.25
2018-10-12T07:55:50.313Z,1003.25
2018-10-12T07:56:50.309Z,1003.34
2018-10-12T07:57:50.303Z,1003.28
2018-10-12T07:58:50.299Z,1003.31
2018-10-12T07:59:50.295Z,1003.33
2018-10-12T08:00:50.291Z,1003.34
2018-10-12T08:01:50.537Z,1003.35
2018-10-12T08:02:50.284Z,1003.40
2018-10-12T08:03:50.278Z,1003.43
2018-10-12T08:04:50.272Z,1003.41
2018-10-12T08:05:50.267Z,1003.40
2018-10-12T08:06:50.325Z,1003.39
2018-10-12T08:07:50.259Z,1003.45
2018-10-12T08:08:50.255Z,1003.51
2018-10-12T08:09:50.250Z,1003.51
2018-10-12T08:10:50.249Z,1003.50
2018-10-12T08:11:50.249Z,1003.52
2018-10-12T08:12:50.238Z,1003.53
2018-10-12T08:13:50.359Z,1003.52
2018-10-12T08:14:50.231Z,1003.57
2018-10-12T08:15:50.225Z,1003.57
2018-10-12T08:16:50.221Z,1003.55
2018-10-12T08:17:50.215Z,1003.56
2018-10-12T08:18:50.211Z,1003.66
2018-10-12T08:19:50.208Z,1003.60
2018-10-12T08:20:50.206Z,1003.67
2018-10-12T08:21:50.200Z,1003.65
2018-10-12T08:22:50.195Z,1003.64
2018-10-12T08:23:50.193Z,1003.63
2018-10-12T08:24:50.191Z,1003.59
2018-10-12T08:25:50.187Z,1003.59
2018-10-12T08:26:50.212Z,1003.57
2018-10-12T08:27:50.179Z,1003.59
2018-10-12T08:28:50.174Z,1003.50
2018-10-12T08:29:50.176Z,1003.58
2018-10-12T08:30:50.167Z,1003.60
2018-10-12T08:31:50.165Z,1003.58
2018-10-12T08:32:50.163Z,1003.64
2018-10-12T08:33:50.160Z,1003.64
2018-10-12T08:34:50.161Z,1003.70
2018-10-12T08:35:50.159Z,1003.66
2018-10-12T08:36:50.164Z,1003.72
2018-10-12T08:37:50.161Z,1003.69
2018-10-12T08:38:50.164Z,1003.72
2018-10-12T08:39:50.163Z,1003.77
2018-10-12T08:40:50.165Z,1003.78
2018-10-12T08:41:50.199Z,1003.79
2018-10-12T08:42:50.169Z,1003.78
2018-10-12T08:43:50.174Z,1003.83
2018-10-12T08:44:50.178Z,1003.86
2018-10-12T08:46:50.184Z,1003.83
2018-10-12T08:47:50.189Z,1003.91
2018-10-12T08:48:50.194Z,1003.83
2018-10-12T08:49:50.197Z,1003.84
2018-10-12T08:50:50.199Z,1003.86
2018-10-12T08:51:50.204Z,1003.87
2018-10-12T08:52:50.207Z,1003.82
2018-10-12T08:53:50.216Z,1003.82
2018-10-12T08:54:50.418Z,1003.85
2018-10-12T08:55:50.223Z,1003.87
2018-10-12T08:56:50.230Z,1003.82
2018-10-12T08:57:50.234Z,1003.77
2018-10-12T08:58:50.229Z,1003.76
2018-10-12T08:59:50.433Z,1003.79
2018-10-12T09:00:50.235Z,1003.82
2018-10-12T09:01:50.445Z,1003.78
2018-10-12T09:02:50.270Z,1003.73
2018-10-12T09:03:50.245Z,1003.75
2018-10-12T09:04:50.250Z,1003.78
2018-10-12T09:05:50.253Z,1003.76
2018-10-12T09:06:50.262Z,1003.78
2018-10-12T09:07:50.267Z,1003.78
2018-10-12T09:08:50.275Z,1003.81
2018-10-12T09:09:50.333Z,1003.77
2018-10-12T09:10:50.282Z,1003.79
2018-10-12T09:11:50.286Z,1003.81
2018-10-12T09:12:50.297Z,1003.84
2018-10-12T09:13:50.299Z,1003.81
2018-10-12T09:14:50.306Z,1003.82
2018-10-12T09:15:50.312Z,1003.86
2018-10-12T09:16:50.319Z,1003.89
2018-10-12T09:17:50.530Z,1003.85
2018-10-12T09:18:50.334Z,1003.91
2018-10-12T09:19:50.341Z,1003.92
2018-10-12T09:20:50.661Z,1003.89
2018-10-12T09:21:50.415Z,1003.77
2018-10-12T09:22:50.373Z,1003.89
2018-10-12T09:23:50.371Z,1003.88
2018-10-12T09:24:50.378Z,1003.88
2018-10-12T09:25:50.385Z,1003.88
2018-10-12T09:26:50.403Z,1003.90
2018-10-12T09:27:50.401Z,1003.85
2018-10-12T09:28:50.409Z,1003.88
2018-10-12T09:29:50.415Z,1003.92
2018-10-12T09:30:50.421Z,1003.90
2018-10-12T09:31:50.430Z,1003.84
2018-10-12T09:32:50.438Z,1003.81
2018-10-12T09:33:50.445Z,1003.82
2018-10-12T09:34:50.453Z,1003.86
2018-10-12T09:35:50.463Z,1003.81
2018-10-12T09:36:50.473Z,1003.81
2018-10-12T09:37:50.481Z,1003.80
2018-10-12T09:38:50.484Z,1003.85
2018-10-12T09:39:50.491Z,1003.84
2018-10-12T09:40:50.504Z,1003.74
2018-10-12T09:41:50.511Z,1003.80
2018-10-12T09:42:50.515Z,1003.76
2018-10-12T09:43:50.522Z,1003.76
2018-10-12T09:44:50.536Z,1003.79
2018-10-12T09:45:50.538Z,1003.76
2018-10-12T09:46:50.546Z,1003.73
2018-10-12T09:47:50.554Z,1003.78
2018-10-12T09:48:50.562Z,1003.82
2018-10-12T09:49:50.570Z,1003.76
2018-10-12T09:50:50.578Z,1003.76
2018-10-12T09:51:50.586Z,1003.80
2018-10-12T09:52:50.592Z,1003.73
2018-10-12T09:53:50.602Z,1003.74
2018-10-12T09:54:50.605Z,1003.76
2018-10-12T09:55:50.645Z,1003.78
2018-10-12T09:56:50.620Z,1003.77
2018-10-12T09:57:50.626Z,1003.75
2018-10-12T09:58:50.636Z,1003.77
2018-10-12T09:59:50.641Z,1003.73
2018-10-12T10:00:50.646Z,1003.71
2018-10-12T10:01:50.773Z,1003.75
2018-10-12T10:02:50.659Z,1003.70
2018-10-12T10:03:50.666Z,1003.70
2018-10-12T10:04:50.676Z,1003.71
2018-10-12T10:06:50.685Z,1003.74
2018-10-12T10:07:50.842Z,1003.71
2018-10-12T10:08:50.784Z,1003.68
2018-10-12T10:09:50.705Z,1003.68
2018-10-12T10:10:50.715Z,1003.65
2018-10-12T10:11:50.718Z,1003.64
2018-10-12T10:12:50.726Z,1003.65
2018-10-12T10:13:50.796Z,1003.63
2018-10-12T10:14:50.738Z,1003.60
2018-10-12T10:15:50.747Z,1003.56
2018-10-12T10:16:50.755Z,1003.56
2018-10-12T10:17:50.764Z,1003.56
2018-10-12T10:18:50.769Z,1003.51
2018-10-12T10:19:50.779Z,1003.56
2018-10-12T10:20:50.783Z,1003.54
2018-10-12T10:21:50.794Z,1003.50
2018-10-12T10:22:50.799Z,1003.58
2018-10-12T10:23:50.808Z,1003.56
2018-10-12T10:24:50.878Z,1003.53
2018-10-12T10:25:50.826Z,1003.52
2018-10-12T10:27:50.844Z,1003.51
2018-10-12T10:28:50.857Z,1003.47
2018-10-12T10:29:50.865Z,1003.51
2018-10-12T10:30:50.872Z,1003.50
2018-10-12T10:31:50.881Z,1003.50
2018-10-12T10:32:50.891Z,1003.44
2018-10-12T10:33:50.908Z,1003.47
2018-10-12T10:34:50.912Z,1003.54
2018-10-12T10:35:50.919Z,1003.53
2018-10-12T10:36:50.928Z,1003.52
2018-10-12T10:37:50.936Z,1003.43
2018-10-12T10:38:50.997Z,1003.50
2018-10-12T10:39:50.958Z,1003.49
2018-10-12T10:40:50.963Z,1003.42
2018-10-12T10:41:50.971Z,1003.46
2018-10-12T10:42:50.979Z,1003.41
2018-10-12T10:43:50.989Z,1003.44
2018-10-12T10:44:51.001Z,1003.42
2018-10-12T10:45:51.003Z,1003.45
2018-10-12T10:46:51.012Z,1003.48
2018-10-12T10:47:51.028Z,1003.49
2018-10-12T10:48:51.031Z,1003.48
2018-10-12T10:50:51.047Z,1003.51
2018-10-12T10:51:51.053Z,1003.46
2018-10-12T10:52:51.066Z,1003.49
2018-10-12T10:53:51.069Z,1003.45
2018-10-12T10:54:51.076Z,1003.51
2018-10-12T10:55:51.090Z,1003.44
2018-10-12T10:56:51.094Z,1003.47
2018-10-12T10:57:51.304Z,1003.48
2018-10-12T10:58:51.112Z,1003.50
2018-10-12T10:59:51.118Z,1003.46
2018-10-12T11:00:51.153Z,1003.47
2018-10-12T11:01:51.133Z,1003.44
2018-10-12T11:02:51.349Z,1003.44
2018-10-12T11:03:51.152Z,1003.46
2018-10-12T11:04:51.157Z,1003.46
2018-10-12T11:05:51.166Z,1003.44
2018-10-12T11:06:51.175Z,1003.53
2018-10-12T11:07:51.182Z,1003.53
2018-10-12T11:08:51.186Z,1003.54
2018-10-12T11:09:51.190Z,1003.51
2018-10-12T11:10:51.197Z,1003.47
2018-10-12T11:11:51.205Z,1003.49
2018-10-12T11:12:51.653Z,1003.53
2018-10-12T11:13:51.213Z,1003.57
2018-10-12T11:14:51.220Z,1003.54
2018-10-12T11:15:51.228Z,1003.53
2018-10-12T11:16:51.235Z,1003.55
2018-10-12T11:17:51.235Z,1003.55
2018-10-12T11:18:51.242Z,1003.56
2018-10-12T11:19:51.254Z,1003.54
2018-10-12T11:20:51.253Z,1003.56
2018-10-12T11:21:51.260Z,1003.51
2018-10-12T11:22:51.268Z,1003.54
2018-10-12T11:23:51.271Z,1003.52
2018-10-12T11:24:51.276Z,1003.52
2018-10-12T11:25:51.281Z,1003.55
2018-10-12T11:26:51.358Z,1003.51
2018-10-12T11:27:51.295Z,1003.55
2018-10-12T11:28:51.296Z,1003.49
2018-10-12T11:29:51.304Z,1003.55
2018-10-12T11:30:51.307Z,1003.59
2018-10-12T11:31:51.320Z,1003.68
2018-10-12T11:32:51.413Z,1003.64
2018-10-12T11:33:51.324Z,1003.56
2018-10-12T11:34:51.328Z,1003.62
2018-10-12T11:35:51.332Z,1003.64
2018-10-12T11:36:51.339Z,1003.62
2018-10-12T11:37:51.348Z,1003.60
2018-10-12T11:38:51.348Z,1003.58
2018-10-12T11:39:51.374Z,1003.60
2018-10-12T11:40:51.358Z,1003.59
2018-10-12T11:41:51.365Z,1003.62
2018-10-12T11:42:51.367Z,1003.60
2018-10-12T11:43:51.371Z,1003.65
2018-10-12T11:44:51.431Z,1003.62
2018-10-12T11:45:51.379Z,1003.72
2018-10-12T11:46:51.385Z,1003.61
2018-10-12T11:47:51.388Z,1003.74
2018-10-12T11:48:51.594Z,1003.71
2018-10-12T11:49:51.396Z,1003.68
2018-10-12T11:50:51.401Z,1003.66
2018-10-12T11:51:51.405Z,1003.68
2018-10-12T11:52:51.411Z,1003.66
2018-10-12T11:53:51.452Z,1003.63
2018-10-12T11:54:51.417Z,1003.66
2018-10-12T11:55:51.422Z,1003.61
2018-10-12T11:56:51.429Z,1003.56
2018-10-12T11:57:51.430Z,1003.60
2018-10-12T11:58:51.439Z,1003.59
2018-10-12T11:59:51.445Z,1003.62
2018-10-12T12:00:51.481Z,1003.62
2018-10-12T12:01:51.453Z,1003.67
2018-10-12T12:02:51.452Z,1003.65
2018-10-12T12:03:51.456Z,1003.68
2018-10-12T12:04:51.461Z,1003.60
2018-10-12T12:05:51.468Z,1003.68
2018-10-12T12:06:51.469Z,1003.63
2018-10-12T12:07:51.475Z,1003.65
2018-10-12T12:08:51.478Z,1003.61
2018-10-12T12:09:51.482Z,1003.60
2018-10-12T12:10:51.487Z,1003.58
2018-10-12T12:11:51.492Z,1003.60
2018-10-12T12:12:51.501Z,1003.56
2018-10-12T12:13:51.668Z,1003.60
2018-10-12T12:14:51.507Z,1003.54
2018-10-12T12:15:51.509Z,1003.58
2018-10-12T12:16:51.515Z,1003.56